createdAt,value
2023-03-02T00:01:35.130Z,58.53
2023-03-02T00:04:05.117Z,65.07
2023-03-02T00:06:34.992Z,57.57
2023-03-02T00:09:04.281Z,63.17
2023-03-02T00:11:33.070Z,63.40
2023-03-02T00:14:00.112Z,65.47
2023-03-02T00:16:27.243Z,61.67
2023-03-02T00:18:54.217Z,61.00
2023-03-02T00:21:21.415Z,59.23
2023-03-02T00:23:48.372Z,61.53
2023-03-02T00:26:15.368Z,59.93
2023-03-02T00:28:42.515Z,59.47
2023-03-02T00:31:09.784Z,66.43
2023-03-02T00:33:36.764Z,60.47
2023-03-02T00:36:04.211Z,60.80
2023-03-02T00:38:31.332Z,62.03
2023-03-02T00:40:59.482Z,65.00
2023-03-02T00:43:28.174Z,60.07
2023-03-02T00:45:55.851Z,64.80
2023-03-02T00:48:23.240Z,63.97
2023-03-02T00:50:50.276Z,64.03
2023-03-02T00:53:18.138Z,59.60
2023-03-02T00:55:54.819Z,59.43
2023-03-02T00:58:22.508Z,63.20
2023-03-02T01:00:49.638Z,60.67
2023-03-02T01:03:16.732Z,64.00
2023-03-02T01:05:44.113Z,64.53
2023-03-02T01:08:11.683Z,61.00
2023-03-02T01:10:39.751Z,62.13
2023-03-02T01:13:08.435Z,60.03
2023-03-02T01:15:35.515Z,65.57
2023-03-02T01:18:02.644Z,60.33
2023-03-02T01:20:29.638Z,63.40
2023-03-02T01:22:56.715Z,62.23
2023-03-02T01:25:24.193Z,65.03
2023-03-02T01:27:51.356Z,58.10
2023-03-02T01:30:18.841Z,59.27
2023-03-02T01:32:45.895Z,58.13
2023-03-02T01:35:13.636Z,60.50
2023-03-02T01:37:40.750Z,58.00
2023-03-02T01:40:09.552Z,57.77
2023-03-02T01:42:46.473Z,60.07
2023-03-02T01:46:02.110Z,58.63
2023-03-02T01:48:37.164Z,55.63
2023-03-02T01:51:07.396Z,59.80
2023-03-02T01:53:36.689Z,60.60
2023-03-02T01:56:05.744Z,60.83
2023-03-02T01:58:37.030Z,64.93
2023-03-02T02:01:04.934Z,61.87
2023-03-02T02:03:32.423Z,62.20
2023-03-02T02:06:24.428Z,61.63
2023-03-02T02:08:54.322Z,59.63
2023-03-02T02:11:21.583Z,56.73
2023-03-02T02:13:48.896Z,65.80
2023-03-02T02:16:16.474Z,65.27
2023-03-02T02:18:44.510Z,58.77
2023-03-02T02:21:12.079Z,58.97
2023-03-02T02:24:01.785Z,60.70
2023-03-02T02:26:37.446Z,58.77
2023-03-02T02:29:14.830Z,59.23
2023-03-02T02:31:48.752Z,62.33
2023-03-02T02:34:31.852Z,58.70
2023-03-02T02:37:12.663Z,63.33
2023-03-02T02:39:45.245Z,56.07
2023-03-02T02:42:28.821Z,58.03
2023-03-02T02:45:00.042Z,58.80
2023-03-02T02:47:28.104Z,56.83
2023-03-02T02:49:56.682Z,59.87
2023-03-02T02:52:27.250Z,58.13
2023-03-02T02:54:56.812Z,58.13
2023-03-02T02:57:28.192Z,58.77
2023-03-02T03:00:00.125Z,72.03
2023-03-02T03:02:30.958Z,58.63
2023-03-02T03:05:02.691Z,61.47
2023-03-02T03:07:33.240Z,63.60
2023-03-02T03:10:35.078Z,57.50
2023-03-02T03:13:02.810Z,58.03
2023-03-02T03:15:29.792Z,59.70
2023-03-02T03:17:58.762Z,57.10
2023-03-02T03:20:26.967Z,60.60
2023-03-02T03:22:54.349Z,65.33
2023-03-02T03:25:26.878Z,60.83
2023-03-02T03:27:53.873Z,62.67
2023-03-02T03:30:22.265Z,59.40
2023-03-02T03:32:49.380Z,60.97
2023-03-02T03:35:16.534Z,56.30
2023-03-02T03:37:43.662Z,60.77
2023-03-02T03:40:11.792Z,57.07
2023-03-02T03:42:39.770Z,59.43
2023-03-02T03:45:08.929Z,55.40
2023-03-02T03:47:37.007Z,59.60
2023-03-02T03:50:04.460Z,59.77
2023-03-02T03:52:31.642Z,61.87
2023-03-02T03:55:00.907Z,59.03
2023-03-02T03:57:29.205Z,60.00
2023-03-02T03:59:56.355Z,63.97
2023-03-02T04:02:23.390Z,63.77
2023-03-02T04:04:50.702Z,60.60
2023-03-02T04:07:18.698Z,62.87
2023-03-02T04:09:45.643Z,58.03
2023-03-02T04:12:12.775Z,61.37
2023-03-02T04:14:39.857Z,56.63
2023-03-02T04:17:07.163Z,60.67
2023-03-02T04:19:35.784Z,57.67
2023-03-02T04:22:04.342Z,65.90
2023-03-02T04:24:31.985Z,59.23
2023-03-02T04:27:00.107Z,59.17
2023-03-02T04:29:27.168Z,57.13
2023-03-02T04:31:54.316Z,56.90
2023-03-02T04:34:21.422Z,55.53
2023-03-02T04:36:48.522Z,56.60
2023-03-02T04:39:17.975Z,59.67
2023-03-02T04:41:46.146Z,56.60
2023-03-02T04:44:14.960Z,57.33
2023-03-02T04:46:44.667Z,55.77
2023-03-02T04:49:12.894Z,57.50
2023-03-02T04:51:43.750Z,58.77
2023-03-02T04:54:28.771Z,57.87
2023-03-02T04:56:56.103Z,57.73
2023-03-02T04:59:27.730Z,106.23
2023-03-02T05:01:58.601Z,62.47
2023-03-02T05:04:26.755Z,54.80
2023-03-02T05:06:53.890Z,56.83
2023-03-02T05:09:27.130Z,54.93
2023-03-02T05:11:59.708Z,58.17
2023-03-02T05:14:27.228Z,57.03
2023-03-02T05:16:54.642Z,55.73
2023-03-02T05:19:22.128Z,56.37
2023-03-02T05:21:49.431Z,58.60
2023-03-02T05:24:16.976Z,63.03
2023-03-02T05:26:43.999Z,60.57
2023-03-02T05:29:11.041Z,59.70
2023-03-02T05:31:42.503Z,65.87
2023-03-02T05:34:12.738Z,61.97
2023-03-02T05:36:40.133Z,58.30
2023-03-02T05:39:09.017Z,60.97
2023-03-02T05:41:37.271Z,80.07
2023-03-02T05:44:09.662Z,56.17
2023-03-02T05:46:37.127Z,54.77
2023-03-02T05:49:04.620Z,59.77
2023-03-02T05:51:31.609Z,57.57
2023-03-02T05:53:58.560Z,61.00
2023-03-02T05:56:25.906Z,59.33
2023-03-02T05:58:52.970Z,57.60
2023-03-02T06:01:20.062Z,57.60
2023-03-02T06:03:47.121Z,60.23
2023-03-02T06:06:14.513Z,58.30
2023-03-02T06:08:43.326Z,55.20
2023-03-02T06:11:11.918Z,59.37
2023-03-02T06:13:42.955Z,57.17
2023-03-02T06:16:10.472Z,59.33
2023-03-02T06:18:40.957Z,53.80
2023-03-02T06:21:09.047Z,61.10
2023-03-02T06:23:36.109Z,56.70
2023-03-02T06:26:10.066Z,56.90
2023-03-02T06:28:49.763Z,56.57
2023-03-02T06:31:18.991Z,60.93
2023-03-02T06:33:46.073Z,59.63
2023-03-02T06:36:13.319Z,59.30
2023-03-02T06:38:40.538Z,57.37
2023-03-02T06:41:07.694Z,65.43
2023-03-02T06:43:34.705Z,57.53
2023-03-02T06:46:02.121Z,56.97
2023-03-02T06:48:29.308Z,56.63
2023-03-02T06:50:56.810Z,54.93
2023-03-02T06:53:23.800Z,62.57
2023-03-02T06:55:51.836Z,56.67
2023-03-02T06:58:19.000Z,58.70
2023-03-02T07:00:46.425Z,62.93
2023-03-02T07:03:13.572Z,68.53
2023-03-02T07:05:40.668Z,58.27
2023-03-02T07:08:08.241Z,64.90
2023-03-02T07:10:35.342Z,57.57
2023-03-02T07:13:02.284Z,58.67
2023-03-02T07:15:29.266Z,56.97
2023-03-02T07:17:56.291Z,58.70
2023-03-02T07:20:23.421Z,58.50
2023-03-02T07:22:50.420Z,61.63
2023-03-02T07:25:17.525Z,59.50
2023-03-02T07:27:44.588Z,61.03
2023-03-02T07:30:12.567Z,62.07
2023-03-02T07:32:39.578Z,63.83
2023-03-02T07:35:07.281Z,60.70
2023-03-02T07:37:34.370Z,60.27
2023-03-02T07:40:02.025Z,59.27
2023-03-02T07:42:29.084Z,59.70
2023-03-02T07:44:56.281Z,59.00
2023-03-02T07:47:23.584Z,61.43
2023-03-02T07:49:51.007Z,59.43
2023-03-02T07:52:18.201Z,63.07
2023-03-02T07:54:45.217Z,66.37
2023-03-02T07:57:16.282Z,63.40
2023-03-02T07:59:44.151Z,62.90
2023-03-02T08:02:15.683Z,63.20
2023-03-02T08:04:43.321Z,63.83
2023-03-02T08:07:10.375Z,61.17
2023-03-02T08:09:40.149Z,67.77
2023-03-02T08:12:07.233Z,66.87
2023-03-02T08:14:34.291Z,67.33
2023-03-02T08:17:02.412Z,74.63
2023-03-02T08:19:30.421Z,69.93
2023-03-02T08:21:57.655Z,76.23
2023-03-02T08:27:06.862Z,76.47
2023-03-02T08:29:34.423Z,84.60
2023-03-02T08:32:01.868Z,70.20
2023-03-02T08:34:29.018Z,70.23
2023-03-02T08:36:56.038Z,65.87
2023-03-02T08:39:23.722Z,74.47
2023-03-02T08:41:52.117Z,71.30
2023-03-02T08:44:22.129Z,74.03
2023-03-02T08:46:50.664Z,69.83
2023-03-02T08:49:19.284Z,83.87
2023-03-02T08:51:47.251Z,73.63
2023-03-02T08:54:14.289Z,73.47
2023-03-02T08:56:41.965Z,79.23
2023-03-02T08:59:13.238Z,76.03
2023-03-02T09:02:28.535Z,89.90
2023-03-02T09:05:18.977Z,75.40
2023-03-02T09:07:46.124Z,79.33
2023-03-02T09:10:13.187Z,90.33
2023-03-02T09:12:40.201Z,81.00
2023-03-02T09:15:07.613Z,77.20
2023-03-02T09:17:34.642Z,88.47
2023-03-02T09:20:01.758Z,81.57
2023-03-02T09:22:28.932Z,87.97
2023-03-02T09:24:55.972Z,76.63
2023-03-02T09:27:23.108Z,84.13
2023-03-02T09:29:50.173Z,86.17
2023-03-02T09:32:17.420Z,83.53
2023-03-02T09:34:44.517Z,101.67
2023-03-02T09:37:11.675Z,89.07
2023-03-02T09:39:39.588Z,93.20
2023-03-02T09:43:00.137Z,86.33
2023-03-02T09:45:55.963Z,87.73
2023-03-02T09:48:40.990Z,84.63
2023-03-02T09:51:33.840Z,87.83
2023-03-02T09:54:12.808Z,87.87
2023-03-02T09:56:54.600Z,90.23
2023-03-02T09:59:27.600Z,91.97
2023-03-02T10:02:24.618Z,91.67
2023-03-02T10:04:55.844Z,89.88
2023-03-02T10:07:40.924Z,103.27
2023-03-02T10:11:00.418Z,100.03
2023-03-02T10:13:45.042Z,96.18
2023-03-02T10:16:38.084Z,97.43
2023-03-02T10:19:25.282Z,97.13
2023-03-02T10:22:03.017Z,102.53
2023-03-02T10:24:43.708Z,103.18
2023-03-02T10:27:44.114Z,100.72
2023-03-02T10:30:33.456Z,103.93
2023-03-02T10:33:23.069Z,108.30
2023-03-02T10:35:53.502Z,113.25
2023-03-02T10:38:24.168Z,130.60
2023-03-02T10:41:01.078Z,113.85
2023-03-02T10:43:45.833Z,120.70
2023-03-02T10:46:14.409Z,113.75
2023-03-02T10:48:59.708Z,122.10
2023-03-02T10:51:34.390Z,124.18
2023-03-02T10:54:12.442Z,129.23
2023-03-02T10:56:44.457Z,127.95
2023-03-02T10:59:43.724Z,137.45
2023-03-02T11:02:27.583Z,133.18
2023-03-02T11:05:15.980Z,140.23
2023-03-02T11:08:03.929Z,148.25
2023-03-02T11:11:03.316Z,161.98
2023-03-02T11:13:38.646Z,151.38
2023-03-02T11:16:32.126Z,161.25
2023-03-02T11:19:05.858Z,177.27
2023-03-02T11:21:52.047Z,185.15
2023-03-02T11:24:24.238Z,198.32
2023-03-02T11:27:25.200Z,202.73
2023-03-02T11:30:04.005Z,211.98
2023-03-02T11:32:45.378Z,229.13
2023-03-02T11:35:32.804Z,228.77
2023-03-02T11:38:48.428Z,235.90
2023-03-02T11:41:30.093Z,242.52
2023-03-02T11:44:02.427Z,243.48
2023-03-02T11:46:31.145Z,251.27
2023-03-02T11:49:04.996Z,263.08
2023-03-02T11:51:44.485Z,274.23
2023-03-02T11:54:41.285Z,278.90
2023-03-02T11:57:28.025Z,276.58
2023-03-02T11:59:56.958Z,292.30
2023-03-02T12:02:25.202Z,297.92
2023-03-02T12:05:20.642Z,300.92
2023-03-02T12:08:21.370Z,308.02
2023-03-02T12:11:19.475Z,304.75
2023-03-02T12:14:01.877Z,317.50
2023-03-02T12:16:41.973Z,331.02
2023-03-02T12:19:13.592Z,332.55
2023-03-02T12:21:57.387Z,339.00
2023-03-02T12:24:32.485Z,346.33
2023-03-02T12:27:20.867Z,359.58
2023-03-02T12:30:26.342Z,357.20
2023-03-02T12:33:13.397Z,360.92
2023-03-02T12:35:40.531Z,371.67
2023-03-02T12:38:32.218Z,401.52
2023-03-02T12:41:35.756Z,406.90
2023-03-02T12:44:22.083Z,422.20
2023-03-02T12:46:50.629Z,432.95
2023-03-02T12:49:30.814Z,431.27
2023-03-02T12:52:01.449Z,441.58
2023-03-02T12:54:32.248Z,466.42
2023-03-02T12:57:20.269Z,450.95
2023-03-02T12:59:58.174Z,453.02
2023-03-02T13:02:34.837Z,448.80
2023-03-02T13:05:08.488Z,445.67
2023-03-02T13:07:44.653Z,463.50
2023-03-02T13:10:39.307Z,492.75
2023-03-02T13:13:34.358Z,473.48
2023-03-02T13:16:20.229Z,487.50
2023-03-02T13:18:49.927Z,490.75
2023-03-02T13:21:19.716Z,489.33
2023-03-02T13:23:50.551Z,501.67
2023-03-02T13:26:36.049Z,504.33
2023-03-02T13:29:20.630Z,503.50
2023-03-02T13:31:48.005Z,488.88
2023-03-02T13:34:28.109Z,506.30
2023-03-02T13:36:55.725Z,491.80
2023-03-02T13:39:29.112Z,506.42
2023-03-02T13:42:04.013Z,497.40
2023-03-02T13:44:34.051Z,512.03
2023-03-02T13:47:02.533Z,527.50
2023-03-02T13:49:33.484Z,520.58
2023-03-02T13:52:08.554Z,528.53
2023-03-02T13:54:37.189Z,529.20
2023-03-02T13:57:05.788Z,531.45
2023-03-02T13:59:36.799Z,541.55
2023-03-02T14:02:29.866Z,520.30
2023-03-02T14:04:57.996Z,529.63
2023-03-02T14:07:25.068Z,522.28
2023-03-02T14:09:52.095Z,539.92
2023-03-02T14:12:31.043Z,528.28
2023-03-02T14:15:00.841Z,515.45
2023-03-02T14:17:28.065Z,525.90
2023-03-02T14:19:55.616Z,503.95
2023-03-02T14:22:25.933Z,515.55
2023-03-02T14:24:53.683Z,511.38
2023-03-02T14:27:21.028Z,508.38
2023-03-02T14:29:48.093Z,533.42
2023-03-02T14:32:16.159Z,513.55
2023-03-02T14:34:43.330Z,523.70
2023-03-02T14:37:18.100Z,546.55
2023-03-02T14:42:30.551Z,536.67
2023-03-02T14:44:59.210Z,533.15
2023-03-02T14:47:26.868Z,533.70
2023-03-02T14:49:54.723Z,523.53
2023-03-02T14:52:40.032Z,515.70
2023-03-02T14:55:19.452Z,512.42
2023-03-02T14:57:51.284Z,518.05
2023-03-02T15:00:18.910Z,506.92
2023-03-02T15:02:45.992Z,508.45
2023-03-02T15:05:13.067Z,520.25
2023-03-02T15:07:41.036Z,527.53
2023-03-02T15:10:14.664Z,529.58
2023-03-02T15:12:41.662Z,520.88
2023-03-02T15:15:10.085Z,523.45
2023-03-02T15:17:37.708Z,516.15
2023-03-02T15:20:06.306Z,516.50
2023-03-02T15:22:34.407Z,528.53
2023-03-02T15:25:01.512Z,504.60
2023-03-02T15:27:28.520Z,504.20
2023-03-02T15:29:56.895Z,495.48
2023-03-02T15:32:24.404Z,488.02
2023-03-02T15:34:51.502Z,479.52
2023-03-02T15:37:18.657Z,474.48
2023-03-02T15:39:45.997Z,478.80
2023-03-02T15:42:14.047Z,490.38
2023-03-02T15:44:41.212Z,475.90
2023-03-02T15:47:08.234Z,478.17
2023-03-02T15:49:35.270Z,483.38
2023-03-02T15:52:02.404Z,477.00
2023-03-02T15:54:29.933Z,480.95
2023-03-02T15:56:57.530Z,470.00
2023-03-02T15:59:28.311Z,463.65
2023-03-02T16:01:59.825Z,467.08
2023-03-02T16:04:28.527Z,458.55
2023-03-02T16:06:56.481Z,457.25
2023-03-02T16:09:25.672Z,469.83
2023-03-02T16:11:52.971Z,473.98
2023-03-02T16:14:20.058Z,466.42
2023-03-02T16:16:47.950Z,470.48
2023-03-02T16:19:19.211Z,472.15
2023-03-02T16:21:47.716Z,465.85
2023-03-02T16:24:17.021Z,466.92
2023-03-02T16:26:44.930Z,468.70
2023-03-02T16:29:13.726Z,456.63
2023-03-02T16:31:41.566Z,451.17
2023-03-02T16:34:10.192Z,452.70
2023-03-02T16:36:40.006Z,443.52
2023-03-02T16:39:08.888Z,429.75
2023-03-02T16:41:36.928Z,412.27
2023-03-02T16:44:05.332Z,420.65
2023-03-02T16:46:39.361Z,397.83
2023-03-02T16:49:07.565Z,382.17
2023-03-02T16:51:35.255Z,384.45
2023-03-02T16:54:02.930Z,364.98
2023-03-02T16:56:30.430Z,351.13
2023-03-02T16:59:00.122Z,349.58
2023-03-02T17:01:28.467Z,342.95
2023-03-02T17:03:56.493Z,346.75
2023-03-02T17:06:24.626Z,327.02
2023-03-02T17:08:51.984Z,321.15
2023-03-02T17:11:21.303Z,324.92
2023-03-02T17:13:48.493Z,320.77
2023-03-02T17:16:16.868Z,308.48
2023-03-02T17:18:47.114Z,309.45
2023-03-02T17:21:16.953Z,311.70
2023-03-02T17:23:44.762Z,278.60
2023-03-02T17:26:11.936Z,262.90
2023-03-02T17:28:39.385Z,284.50
2023-03-02T17:31:06.935Z,267.83
2023-03-02T17:33:34.580Z,249.23
2023-03-02T17:36:12.090Z,245.18
2023-03-02T17:38:40.454Z,254.48
2023-03-02T17:41:11.511Z,240.70
2023-03-02T17:43:41.661Z,235.32
2023-03-02T17:46:30.369Z,224.35
2023-03-02T17:49:00.426Z,209.93
2023-03-02T17:51:29.338Z,211.90
2023-03-02T17:53:57.229Z,206.75
2023-03-02T17:56:27.468Z,211.85
2023-03-02T17:58:57.552Z,198.07
2023-03-02T18:01:26.904Z,195.93
2023-03-02T18:03:54.075Z,190.85
2023-03-02T18:06:22.244Z,201.30
2023-03-02T18:08:51.721Z,178.32
2023-03-02T18:11:22.122Z,188.27
2023-03-02T18:13:49.753Z,167.50
2023-03-02T18:16:16.781Z,176.48
2023-03-02T18:18:43.958Z,163.35
2023-03-02T18:21:11.102Z,195.13
2023-03-02T18:23:39.900Z,157.63
2023-03-02T18:26:07.199Z,149.40
2023-03-02T18:28:34.577Z,161.75
2023-03-02T18:31:01.871Z,153.77
2023-03-02T18:33:29.125Z,157.55
2023-03-02T18:35:57.410Z,152.32
2023-03-02T18:38:31.096Z,185.68
2023-03-02T18:41:00.960Z,143.88
2023-03-02T18:43:30.098Z,135.55
2023-03-02T18:45:57.860Z,145.18
2023-03-02T18:48:25.540Z,148.57
2023-03-02T18:50:52.658Z,136.40
2023-03-02T18:53:19.864Z,137.32
2023-03-02T18:55:47.076Z,137.88
2023-03-02T18:58:22.714Z,133.07
2023-03-02T19:00:50.505Z,127.75
2023-03-02T19:03:18.069Z,126.55
2023-03-02T19:05:45.844Z,126.50
2023-03-02T19:08:12.975Z,119.22
2023-03-02T19:10:42.459Z,123.93
2023-03-02T19:13:11.699Z,122.45
2023-03-02T19:15:42.823Z,124.85
2023-03-02T19:18:16.223Z,115.68
2023-03-02T19:20:48.296Z,119.10
2023-03-02T19:23:15.871Z,122.88
2023-03-02T19:25:43.885Z,121.22
2023-03-02T19:28:11.790Z,141.00
2023-03-02T19:30:40.302Z,125.35
2023-03-02T19:33:09.446Z,161.70
2023-03-02T19:35:40.405Z,113.57
2023-03-02T19:38:08.885Z,118.70
2023-03-02T19:40:37.310Z,111.40
2023-03-02T19:43:05.794Z,113.07
2023-03-02T19:45:35.029Z,113.80
2023-03-02T19:48:05.754Z,111.33
2023-03-02T19:50:33.083Z,115.57
2023-03-02T19:53:00.360Z,114.83
2023-03-02T19:55:27.622Z,146.47
2023-03-02T19:58:01.138Z,115.40
2023-03-02T20:00:33.473Z,121.97
2023-03-02T20:03:00.854Z,108.67
2023-03-02T20:05:28.343Z,102.40
2023-03-02T20:07:55.816Z,108.90
2023-03-02T20:10:31.482Z,106.00
2023-03-02T20:12:59.877Z,109.97
2023-03-02T20:15:33.167Z,99.03
2023-03-02T20:18:02.591Z,104.13
2023-03-02T20:20:30.848Z,103.27
2023-03-02T20:22:58.862Z,101.33
2023-03-02T20:25:27.115Z,100.05
2023-03-02T20:27:54.638Z,115.70
2023-03-02T20:30:29.363Z,104.03
2023-03-02T20:32:57.804Z,105.23
2023-03-02T20:35:27.739Z,99.37
2023-03-02T20:37:57.473Z,102.63
2023-03-02T20:40:26.056Z,109.97
2023-03-02T20:42:53.607Z,107.07
2023-03-02T20:45:21.261Z,105.97
2023-03-02T20:47:49.167Z,99.77
2023-03-02T20:50:23.616Z,106.37
2023-03-02T20:52:50.949Z,135.57
2023-03-02T20:55:18.604Z,99.57
2023-03-02T20:57:45.909Z,105.25
2023-03-02T21:00:21.688Z,111.07
2023-03-02T21:02:49.757Z,134.55
2023-03-02T21:05:19.759Z,120.78
2023-03-02T21:07:47.819Z,102.20
2023-03-02T21:10:20.732Z,109.50
2023-03-02T21:12:49.202Z,105.33
2023-03-02T21:15:17.493Z,111.03
2023-03-02T21:17:44.708Z,103.03
2023-03-02T21:20:13.477Z,104.63
2023-03-02T21:22:40.846Z,104.05
2023-03-02T21:25:09.426Z,102.40
2023-03-02T21:27:39.443Z,112.60
2023-03-02T21:30:09.419Z,102.68
2023-03-02T21:32:36.438Z,102.93
2023-03-02T21:35:03.783Z,103.17
2023-03-02T21:37:32.676Z,102.60
2023-03-02T21:40:00.204Z,104.80
2023-03-02T21:42:27.390Z,104.23
2023-03-02T21:44:54.645Z,102.77
2023-03-02T21:47:21.818Z,100.37
2023-03-02T21:49:49.563Z,100.07
2023-03-02T21:52:16.693Z,99.57
2023-03-02T21:54:43.909Z,97.93
2023-03-02T21:57:11.700Z,101.00
2023-03-02T21:59:38.694Z,101.23
2023-03-02T22:02:05.917Z,98.33
2023-03-02T22:04:35.310Z,100.70
2023-03-02T22:07:02.616Z,103.40
2023-03-02T22:09:29.830Z,101.20
2023-03-02T22:11:58.086Z,104.97
2023-03-02T22:14:25.532Z,99.77
2023-03-02T22:16:52.557Z,95.73
2023-03-02T22:19:31.455Z,103.20
2023-03-02T22:22:00.949Z,101.97
2023-03-02T22:24:31.570Z,100.30
2023-03-02T22:27:31.195Z,102.57
2023-03-02T22:30:02.149Z,94.93
2023-03-02T22:32:37.509Z,92.73
2023-03-02T22:35:22.133Z,100.17
2023-03-02T22:37:51.937Z,97.37
2023-03-02T22:40:25.147Z,96.60
2023-03-02T22:43:06.084Z,95.57
2023-03-02T22:45:33.137Z,94.20
2023-03-02T22:48:00.456Z,101.37
2023-03-02T22:50:30.570Z,89.93
2023-03-02T22:53:00.215Z,91.83
2023-03-02T22:55:43.687Z,93.93
2023-03-02T22:58:43.196Z,93.83
2023-03-02T23:01:21.268Z,91.87
2023-03-02T23:03:52.998Z,91.90
2023-03-02T23:06:26.476Z,92.83
2023-03-02T23:08:57.730Z,88.77
2023-03-02T23:11:26.101Z,95.77
2023-03-02T23:13:54.172Z,89.93
2023-03-02T23:16:28.457Z,92.17
2023-03-02T23:18:59.437Z,85.17
2023-03-02T23:21:44.759Z,86.57
2023-03-02T23:24:12.535Z,89.20
2023-03-02T23:26:39.934Z,90.27
2023-03-02T23:29:07.633Z,89.70
2023-03-02T23:31:34.742Z,85.90
2023-03-02T23:34:02.083Z,91.67
2023-03-02T23:36:30.898Z,86.97
2023-03-02T23:38:58.573Z,91.30
2023-03-02T23:41:26.110Z,90.60
2023-03-02T23:43:53.231Z,84.33
2023-03-02T23:46:20.433Z,90.43
2023-03-02T23:48:48.581Z,84.50
2023-03-02T23:51:16.357Z,85.80
2023-03-02T23:53:43.578Z,87.10
2023-03-02T23:56:11.568Z,89.57
2023-03-02T23:58:39.132Z,82.67
